createdAt,value
2022-12-23T00:03:31.969Z,94.13
2022-12-23T00:13:54.943Z,91.60
2022-12-23T00:23:58.675Z,101.23
2022-12-23T00:34:03.878Z,99.70
2022-12-23T00:44:07.758Z,101.83
2022-12-23T00:54:13.207Z,95.83
2022-12-23T01:04:36.615Z,91.93
2022-12-23T01:14:42.595Z,98.80
2022-12-23T01:24:46.470Z,96.23
2022-12-23T01:34:51.667Z,97.97
2022-12-23T01:45:01.044Z,93.80
2022-12-23T01:55:07.339Z,99.50
2022-12-23T02:05:11.321Z,91.67
2022-12-23T02:15:53.371Z,95.80
2022-12-23T02:26:23.011Z,92.63
2022-12-23T02:36:40.143Z,95.47
2022-12-23T02:46:48.619Z,92.83
2022-12-23T02:56:55.976Z,93.53
2022-12-23T03:07:06.933Z,93.87
2022-12-23T03:17:27.356Z,95.27
2022-12-23T03:27:37.417Z,92.67
2022-12-23T03:37:47.887Z,96.80
2022-12-23T03:47:56.527Z,92.83
2022-12-23T03:58:11.273Z,98.17
2022-12-23T04:08:19.373Z,91.03
2022-12-23T04:18:24.567Z,94.67
2022-12-23T04:28:28.389Z,94.93
2022-12-23T04:38:33.796Z,93.90
2022-12-23T04:48:37.763Z,91.27
2022-12-23T04:58:43.175Z,95.13
2022-12-23T05:08:46.999Z,91.00
2022-12-23T05:18:52.209Z,92.70
2022-12-23T05:28:56.799Z,90.03
2022-12-23T05:39:02.100Z,95.60
2022-12-23T05:49:06.064Z,94.00
2022-12-23T05:59:11.423Z,94.60
2022-12-23T06:09:15.398Z,88.80
2022-12-23T06:19:20.541Z,88.43
2022-12-23T06:29:24.459Z,97.20
2022-12-23T06:39:29.580Z,97.20
2022-12-23T06:49:33.274Z,104.97
2022-12-23T06:59:38.485Z,90.07
2022-12-23T07:09:42.081Z,94.87
2022-12-23T07:19:47.078Z,96.97
2022-12-23T07:29:50.831Z,97.70
2022-12-23T07:39:56.054Z,94.00
2022-12-23T07:49:59.749Z,96.00
2022-12-23T08:00:07.170Z,99.40
2022-12-23T08:10:16.045Z,97.50
2022-12-23T08:20:21.171Z,98.00
2022-12-23T08:30:25.166Z,96.23
2022-12-23T08:40:30.370Z,97.00
2022-12-23T08:50:39.606Z,101.10
2022-12-23T09:00:44.827Z,111.70
2022-12-23T09:10:48.502Z,100.80
2022-12-23T09:20:59.563Z,97.67
2022-12-23T09:31:09.248Z,101.60
2022-12-23T09:41:29.206Z,107.90
2022-12-23T09:51:35.343Z,104.97
2022-12-23T10:01:50.551Z,115.07
2022-12-23T10:11:54.555Z,114.67
2022-12-23T10:22:05.088Z,100.70
2022-12-23T10:32:23.462Z,95.13
2022-12-23T10:42:35.748Z,89.20
2022-12-23T10:52:43.722Z,97.20
2022-12-23T11:03:01.141Z,90.40
2022-12-23T11:13:05.218Z,91.10
2022-12-23T11:23:26.730Z,91.57
2022-12-23T11:33:33.431Z,94.60
2022-12-23T11:43:41.095Z,94.13
2022-12-23T11:53:45.268Z,97.90
2022-12-23T12:03:54.783Z,95.77
2022-12-23T12:14:01.863Z,91.93
2022-12-23T12:24:19.261Z,95.63
2022-12-23T12:34:39.399Z,95.67
2022-12-23T12:44:53.961Z,92.70
2022-12-23T12:55:05.611Z,90.20
2022-12-23T13:05:38.391Z,93.63
2022-12-23T13:15:51.659Z,93.77
2022-12-23T13:26:02.770Z,93.17
2022-12-23T13:36:21.718Z,95.57
2022-12-23T13:46:39.855Z,93.87
2022-12-23T13:56:50.456Z,92.27
2022-12-23T14:06:58.166Z,92.93
2022-12-23T14:17:13.238Z,96.93
2022-12-23T14:27:38.038Z,93.30
2022-12-23T14:37:42.066Z,93.47
2022-12-23T14:47:47.322Z,98.43
2022-12-23T14:57:56.261Z,92.97
2022-12-23T15:08:01.532Z,96.70
2022-12-23T15:18:10.997Z,96.50
2022-12-23T15:28:20.462Z,99.03
2022-12-23T15:38:30.478Z,97.10
2022-12-23T15:48:35.763Z,99.63
2022-12-23T15:58:43.528Z,99.63
2022-12-23T16:08:58.965Z,98.00
2022-12-23T16:19:02.691Z,98.27
2022-12-23T16:29:08.025Z,103.03
2022-12-23T16:39:23.018Z,105.53
2022-12-23T16:49:33.780Z,104.43
2022-12-23T16:59:41.300Z,109.10
2022-12-23T17:09:46.811Z,104.57
2022-12-23T17:19:50.655Z,107.80
2022-12-23T17:29:55.951Z,113.13
2022-12-23T17:39:59.769Z,110.27
2022-12-23T17:50:05.568Z,116.30
2022-12-23T18:00:11.207Z,115.23
2022-12-23T18:10:21.623Z,111.13
2022-12-23T18:20:26.266Z,114.83
2022-12-23T18:30:31.790Z,123.20
2022-12-23T18:40:35.693Z,113.13
2022-12-23T18:50:42.535Z,119.03
2022-12-23T19:00:47.792Z,112.13
2022-12-23T19:10:54.145Z,120.83
2022-12-23T19:20:57.894Z,125.70
2022-12-23T19:31:08.276Z,117.27
2022-12-23T19:41:12.121Z,116.27
2022-12-23T19:51:17.165Z,129.47
2022-12-23T20:01:25.119Z,130.90
2022-12-23T20:11:32.673Z,126.97
2022-12-23T20:21:37.534Z,127.43
2022-12-23T20:31:43.025Z,127.47
2022-12-23T20:41:46.738Z,125.00
2022-12-23T20:51:51.840Z,127.67
2022-12-23T21:01:55.626Z,118.60
2022-12-23T21:12:04.318Z,114.37
2022-12-23T21:22:08.464Z,100.33
2022-12-23T21:32:13.726Z,106.93
2022-12-23T21:42:17.490Z,100.70
2022-12-23T21:52:22.643Z,99.83
2022-12-23T22:02:26.843Z,96.20
2022-12-23T22:12:32.293Z,100.57
2022-12-23T22:22:36.000Z,100.93
2022-12-23T22:32:42.719Z,97.07
2022-12-23T22:42:46.607Z,94.93
2022-12-23T22:52:51.762Z,91.20
2022-12-23T23:02:55.676Z,110.43
2022-12-23T23:13:01.065Z,100.23
2022-12-23T23:23:04.764Z,99.03
2022-12-23T23:33:11.466Z,101.90
2022-12-23T23:43:15.771Z,104.00
2022-12-23T23:53:20.937Z,100.47
